Home | U.S. Races | Non U.S. Races | Search | FAQ | Link | Advertise | Split Second | NASTAR  
 

    Link to This RaceResults  
MJSL North Finals Slalom - Girls - Single Crs, Combined
USA - ME - Titcomb Mountain
2/18/2017 9:00 AM

OFFICIAL RESULTS¹print

                         SINGLE COURSE RACE  2/18/2017                    Page 1 
 
MJSL North Slalom Finals - Girls 
February 18, 2017 
 
Pl Bib Class Team Name Run 1 Run 2 Result 
________________________________________________________________________________ 
1 12 CSB Isabelle Manahan 47.32 (3) 49.75 (2) 1:37.07 (1) 
2 28 WMAR Riley Jerome 49.00 (5) 49.15 (1) 1:38.15 (2) 
3 1 SPR Ella Plourde 49.39 (7) 50.15 (4) 1:39.54 (3) 
4 22 CSB Olivia Britton 49.75 (10) 50.08 (3) 1:39.83 (4) 
5 10 SM AMS Courtney Larson 49.08 (6) 51.32 (7) 1:40.40 (5) 
6 4 SAST Alice MacKay 46.53 (1) 54.11 (19) 1:40.64 (6) 
7 8 MTV Gabby Gallant 49.70 (9) 51.17 (6) 1:40.87 (7) 
8 31 SM CSB Elli Andrus 49.59 (8) 52.28 (12) 1:41.87 (8) 
9 27 FAST Sadie McDonough 50.50 (12) 51.48 (8) 1:41.98 (9) 
10 15 MAR Emily Harper 51.53 (14) 50.88 (5) 1:42.41 (10) 
11 16 SAST Charlie Koenig 50.48 (11) 52.13 (10) 1:42.61 (11) 
12 26 OH Lizzie Deiterich 51.24 (13) 52.20 (11) 1:43.44 (12) 
13 44 WMAR Maja Mulley 51.95 (16) 53.15 (13) 1:45.10 (13) 
14 35 FAST Katie Yeaton 51.85 (15) 53.35 (14) 1:45.20 (14) 
15 19 WMAR Quinn Jerome 53.33 (21) 52.08 (9) 1:45.41 (15) 
16 36 WMAR Molly Pereira 52.54 (17) 53.76 (18) 1:46.30 (16) 
17 34 SAST Cassidy Strunk 53.03 (20) 53.36 (15) 1:46.39 (17) 
18 2 RANG Bristol Quimby 54.06 (23) 53.54 (16) 1:47.60 (18) 
19 18 SM FAST Kamryn Joyce 53.00 (18) 55.23 (22) 1:48.23 (19) 
20 7 WMAR Mae Hoff 53.87 (22) 54.39 (20) 1:48.26 (20) 
21 14 RANG Amelia Stokes 53.00 (18) 55.26 (23) 1:48.26 (20) 
22 24 MAR Anna Erb 54.53 (24) 53.75 (17) 1:48.28 (22) 
23 37 MTV Baily Martin 55.53 (26) 56.67 (27) 1:52.20 (23) 
24 50 FAST Vivian Cormier 56.85 (31) 55.88 (24) 1:52.73 (24) 
25 23 RANG Breezy Quimby 56.31 (30) 56.51 (25) 1:52.82 (25) 
26 39 SM CSB Abigail Williams 55.62 (27) 57.46 (29) 1:53.08 (26) 
27 25 SAST Cameron Arner 56.09 (29) 57.23 (28) 1:53.32 (27) 
28 41 MAR Ella Trefethen 54.90 (25) 58.52 (30) 1:53.42 (28) 
29 43 FAST Madeline Morton 56.04 (28) 58.61 (31) 1:54.65 (29) 
30 55 FAST Abbey Goodspeed 56.97 (32) 59.32 (34) 1:56.29 (30) 
31 32 RANG Autumn Williams 57.62 (33) 58.98 (32) 1:56.60 (31) 
32 13 SPR Bre Jacques 59.26 (35) 58.98 (32) 1:58.24 (32) 
33 20 MTV Lillian Souweine 1:03.86 (48) 54.73 (21) 1:58.59 (33) 
34 42 SAST Gracie May Fargo 58.46 (34) 1:00.60 (37) 1:59.06 (34) 
35 49 MAR Naeema ORourke 1:00.27 (38) 1:00.31 (35) 2:00.58 (35) 
36 17 OH Ashley Campbell 1:00.47 (39) 1:00.31 (35) 2:00.78 (36) 
37 40 RANG Lily Emerson 59.39 (37) 1:02.35 (40) 2:01.74 (37) 
38 21 AMS Maizy Demers 59.27 (36) 1:03.72 (45) 2:02.99 (38) 
39 11 CMSC Adelle MacLeay 1:01.33 (44) 1:01.70 (38) 2:03.03 (39) 
40 48 RANG Jacksyn Haley 1:00.87 (41) 1:02.73 (42) 2:03.60 (40) 
41 29 MTV Brooke Boutte 1:01.29 (43) 1:02.39 (41) 2:03.68 (41) 
42 60 ALT/S FAST Molly Kearing 1:01.17 (42) 1:03.48 (44) 2:04.65 (42) 
43 53 RANG Natalie Stokes 1:00.61 (40) 1:04.60 (47) 2:05.21 (43) 
44 6 FAST Taylor Gordon 48.32 (4) 1:16.95 (56) 2:05.27 (44) 
45 57 MAR Josie Hannon 1:02.73 (47) 1:02.76 (43) 2:05.49 (45) 
46 59 ALT / FAST Meren Zeliger 1:01.79 (45) 1:03.99 (46) 2:05.78 (46) 
47 61 SMO FAST Emma Parsons 1:02.15 (46) 1:05.32 (48) 2:07.47 (47) 
48 38 AMS Mackenzie Brooks 1:05.68 (52) 1:06.12 (49) 2:11.80 (48) 
49 30 AMS Rebecca Bassett 1:04.17 (49) 1:07.70 (51) 2:11.87 (49) 
50 47 SM CSB Charlotte Taylor 1:05.22 (50) 1:07.18 (50) 2:12.40 (50) 
51 58 FAST Meredith Gagnon 1:05.62 (51) 1:09.18 (54) 2:14.80 (51) 
52 54 MAR Katie Sechrist 1:10.04 (54) 1:07.75 (52) 2:17.79 (52) 
53 5 OH Alie Adams 1:09.32 (53) 1:08.51 (53) 2:17.83 (53) 
54 52 SM CSB Lizzy Larsen 1:15.33 (56) 1:17.44 (57) 2:32.77 (54) 
55 45 MTV Vivian Rice 1:18.10 (57) 1:15.66 (55) 2:33.76 (55) 
56 56 RANG Olivia Wakefield 1:14.75 (55) 1:19.22 (58) 2:33.97 (56) 
57 9 SM MTA Emily Kidd 1:32.97 (58) 1:02.26 (39) 2:35.23 (57) 
58 33 MAR Anna Laberge DSQ 56.52 (26) 
59 3 MAR Lydian Frost 46.54 (2) DSQ 
60 46 AMS Molly Vincent DNS 
61 51 WMAR Chelsea Duclos DNS 
62 335 
 
 
 
 
 
 
 
 
 
 
 
 
 
 
 
 
 
 
 
 
 
 
 
 
 
 
 
 
 
 
 
 
 
 
 
________________________________________________________________________________ 
 
Ski Club Software from www.SplitSecond.com 2/19/2017 6:11:31 PM 

¹ attached report
Widgets    Upload/View Logos
All results are 'unofficial'     Copyright © 2017 Split Second Sports Timing, Inc., All rights reserved